Oakland, ME

10:52 AM EST on February 24, 2017 (GMT -0500)
Waterville Lafleur

Weather History for KWVL - February, 2013

Change the Weather History Date:

Wednesday, February 20, 2013

  Actual Average Record
Temperature  
Mean Temperature 34 °F -  
Max Temperature 42 °F 37 °F 54 °F (1981)
Min Temperature 26 °F 13 °F -15 °F (1967)
Degree Days  
Heating Degree Days 31    
Moisture  
Dew Point 24 °F    
Average Humidity 69    
Maximum Humidity 100    
Minimum Humidity 51    
Precipitation  
Precipitation 0.31 in - - ()
Sea Level Pressure  
Sea Level Pressure 29.47 in    
Wind  
Wind Speed 8 mph (WSW)    
Max Wind Speed 17 mph    
Max Gust Speed 29 mph    
Visibility 9 miles    
Events      
Averages and records for this station are not official NWS values.
T = Trace of Precipitation, MM = Missing Value Source: NWS Daily Summary

Daily Weather History Graph

Daily Weather History Graph

Search for Another Location

Airport or City:

Trip Planner

Search our weather history database for the weather conditions in past years. The results will help you decide how hot, cold, wet, or windy it might be!

Date:

Astronomy

Feb. 20, 2013 Rise Set
Actual Time 6:30 AM EST 5:14 PM EST
Civil Twilight 6:01 AM EST 5:44 PM EST
Nautical Twilight 5:27 AM EST 6:18 PM EST
Astronomical Twilight 4:53 AM EST 6:52 PM EST
Moon 12:26 PM EST (2/20) 2:55 AM EST (2/20)
Length of Visible Light 11h 43m
Length of Day
10h 44m
Waxing Gibbous, 76% of the Moon is Illuminated
Feb 20
Waxing Gibbous
Feb 25
Full
Mar 4
Last Quarter
Mar 11
New
Mar 19
First Quarter

Hourly Weather History & Observations

Time (EST) Temp. Windchill Dew Point Humidity Pressure Visibility Wind Dir Wind Speed Gust Speed Precip Events Conditions
12:15 AM 41.0 °F - 39.2 °F 93% 29.56 in 5.0 mi Calm Calm - 0.06 in   Overcast
12:35 AM 41.0 °F 39.0 °F 39.2 °F 93% 29.54 in 9.0 mi SE 3.5 mph - 0.09 in   Overcast
12:55 AM 41.0 °F 38.0 °F 39.2 °F 93% 29.52 in 10.0 mi SE 4.6 mph - 0.11 in   Overcast
1:15 AM 42.8 °F 38.6 °F 41.0 °F 93% 29.51 in 10.0 mi SSE 6.9 mph - 0.02 in   Overcast
1:35 AM 42.8 °F 40.1 °F 41.0 °F 93% 29.48 in 8.0 mi SSE 4.6 mph - 0.04 in   Overcast
1:55 AM 42.8 °F 40.1 °F 41.0 °F 93% 29.46 in 9.0 mi ESE 4.6 mph - 0.07 in   Overcast
2:15 AM 42.8 °F 40.1 °F 41.0 °F 93% 29.40 in 9.0 mi SE 4.6 mph - 0.01 in   Overcast
2:35 AM 42.8 °F 38.6 °F 41.0 °F 93% 29.42 in 10.0 mi South 6.9 mph - 0.01 in   Overcast
2:55 AM 42.8 °F 40.1 °F 41.0 °F 93% 29.40 in 10.0 mi South 4.6 mph - 0.01 in   Overcast
3:15 AM 42.8 °F 38.6 °F 41.0 °F 93% 29.38 in 8.0 mi SSE 6.9 mph - N/A   Overcast
3:35 AM 42.8 °F 38.6 °F 41.0 °F 93% 29.37 in 1.5 mi SSE 6.9 mph - N/A   Overcast
3:55 AM 42.8 °F 39.3 °F 41.0 °F 93% 29.37 in 1.0 mi South 5.8 mph - 0.01 in   Overcast
4:15 AM 41.0 °F 35.2 °F 41.0 °F 100% 29.36 in 2.0 mi SSW 9.2 mph - 0.01 in   Overcast
4:35 AM 39.2 °F 33.6 °F 39.2 °F 100% 29.36 in 2.5 mi SSW 8.1 mph - 0.02 in   Overcast
4:55 AM 39.2 °F 32.5 °F 37.4 °F 93% 29.36 in 6.0 mi SW 10.4 mph - 0.04 in   Overcast
5:15 AM 37.4 °F 28.5 °F 37.4 °F 100% 29.36 in 8.0 mi WSW 15.0 mph 18.4 mph 0.04 in   Overcast
5:35 AM 35.6 °F 28.0 °F 33.8 °F 93% 29.38 in 6.0 mi West 10.4 mph 19.6 mph 0.07 in   Overcast
5:55 AM 35.6 °F 29.2 °F 30.2 °F 81% 29.38 in 9.0 mi WNW 8.1 mph - 0.07 in   Mostly Cloudy
6:15 AM 33.8 °F 27.7 °F 30.2 °F 87% 29.40 in 10.0 mi WSW 6.9 mph - N/A   Overcast
6:35 AM 33.8 °F 26.4 °F 30.2 °F 87% 29.42 in 10.0 mi WSW 9.2 mph - N/A   Overcast
6:55 AM 33.8 °F 24.3 °F 28.4 °F 81% 29.43 in 10.0 mi WNW 13.8 mph 18.4 mph N/A   Overcast
7:15 AM 33.8 °F 23.5 °F 24.8 °F 70% 29.45 in 10.0 mi West 16.1 mph 20.7 mph N/A   Overcast
7:35 AM 33.8 °F 23.2 °F 21.2 °F 60% 29.45 in 10.0 mi WNW 17.3 mph 28.8 mph N/A   Overcast
7:55 AM 32.0 °F 20.8 °F 21.2 °F 64% 29.45 in 10.0 mi WNW 17.3 mph 24.2 mph N/A   Overcast
8:15 AM 32.0 °F 24.2 °F 23.0 °F 69% 29.46 in 10.0 mi West 9.2 mph 21.9 mph N/A   Overcast
8:35 AM 30.2 °F 23.4 °F 24.8 °F 80% 29.46 in 9.0 mi WSW 6.9 mph - N/A   Mostly Cloudy
8:55 AM 32.0 °F 22.5 °F 21.2 °F 64% 29.46 in 10.0 mi WNW 12.7 mph 26.5 mph N/A   Partly Cloudy
9:15 AM 33.8 °F 23.9 °F 21.2 °F 60% 29.46 in 10.0 mi NW 15.0 mph 20.7 mph N/A   Partly Cloudy
9:35 AM 33.8 °F 24.8 °F 21.2 °F 60% 29.45 in 10.0 mi NW 12.7 mph - N/A   Clear
10:15 AM 35.6 °F 27.1 °F 21.2 °F 56% 29.47 in 10.0 mi WNW 12.7 mph 19.6 mph N/A   Scattered Clouds
10:35 AM 33.8 °F 25.3 °F 21.2 °F 60% 29.47 in 10.0 mi WSW 11.5 mph - N/A   Mostly Cloudy
10:55 AM 35.6 °F 28.6 °F 21.2 °F 56% 29.46 in 10.0 mi West 9.2 mph 17.3 mph N/A   Mostly Cloudy
11:15 AM 35.6 °F 27.5 °F 21.2 °F 56% 29.46 in 10.0 mi WSW 11.5 mph 19.6 mph N/A   Scattered Clouds
11:35 AM 35.6 °F 27.5 °F 21.2 °F 56% 29.46 in 10.0 mi West 11.5 mph 18.4 mph N/A   Overcast
11:55 AM 35.6 °F 26.2 °F 21.2 °F 56% 29.46 in 10.0 mi WSW 15.0 mph 20.7 mph N/A   Mostly Cloudy
12:15 PM 33.8 °F 23.5 °F 21.2 °F 60% 29.46 in 10.0 mi WSW 16.1 mph 20.7 mph N/A   Mostly Cloudy
12:35 PM 33.8 °F 24.8 °F 21.2 °F 60% 29.46 in 10.0 mi West 12.7 mph 17.3 mph N/A   Overcast
12:55 PM 33.8 °F 24.3 °F 21.2 °F 60% 29.46 in 10.0 mi WSW 13.8 mph 19.6 mph N/A   Overcast
1:15 PM 33.8 °F 24.8 °F 21.2 °F 60% 29.45 in 10.0 mi WSW 12.7 mph 17.3 mph N/A   Overcast
1:35 PM 33.8 °F 25.8 °F 19.4 °F 56% 29.45 in 10.0 mi West 10.4 mph 18.4 mph N/A   Overcast
1:55 PM 33.8 °F 24.3 °F 19.4 °F 56% 29.45 in 10.0 mi WSW 13.8 mph 19.6 mph N/A   Overcast
2:15 PM 33.8 °F 25.3 °F 19.4 °F 56% 29.45 in 10.0 mi WSW 11.5 mph 17.3 mph N/A   Overcast
2:35 PM 33.8 °F 26.4 °F 19.4 °F 56% 29.45 in 10.0 mi West 9.2 mph 17.3 mph N/A   Overcast
2:55 PM 33.8 °F 27.0 °F 19.4 °F 56% 29.45 in 10.0 mi West 8.1 mph - N/A   Overcast
3:15 PM 33.8 °F 25.8 °F 19.4 °F 56% 29.45 in 10.0 mi West 10.4 mph - N/A   Overcast
3:35 PM 33.8 °F 25.3 °F 19.4 °F 56% 29.46 in 10.0 mi West 11.5 mph - N/A   Overcast
3:55 PM 33.8 °F 27.7 °F 19.4 °F 56% 29.46 in 10.0 mi WSW 6.9 mph - N/A   Overcast
4:15 PM 33.8 °F 27.0 °F 19.4 °F 56% 29.47 in 10.0 mi WNW 8.1 mph - N/A   Overcast
4:35 PM 32.0 °F 23.6 °F 17.6 °F 55% 29.48 in 10.0 mi WNW 10.4 mph 17.3 mph N/A   Overcast
4:55 PM 32.0 °F 25.6 °F 17.6 °F 55% 29.49 in 10.0 mi WNW 6.9 mph - N/A   Overcast
5:15 PM 30.2 °F 21.3 °F 15.8 °F 55% 29.50 in 10.0 mi West 10.4 mph 16.1 mph N/A   Overcast
5:35 PM 30.2 °F 21.9 °F 15.8 °F 55% 29.51 in 10.0 mi West 9.2 mph - N/A   Overcast
5:55 PM 30.2 °F 23.4 °F 15.8 °F 55% 29.52 in 10.0 mi West 6.9 mph - N/A   Overcast
6:15 PM 30.2 °F 20.8 °F 15.8 °F 55% 29.53 in 10.0 mi WSW 11.5 mph - N/A   Overcast
6:35 PM 28.4 °F 18.0 °F 15.8 °F 59% 29.53 in 10.0 mi WSW 12.7 mph 18.4 mph N/A   Overcast
6:55 PM 28.4 °F 21.2 °F 15.8 °F 59% 29.53 in 10.0 mi WSW 6.9 mph - N/A   Overcast
7:15 PM 28.4 °F 21.2 °F 15.8 °F 59% 29.54 in 10.0 mi West 6.9 mph - N/A   Overcast
7:35 PM 28.4 °F 19.1 °F 15.8 °F 59% 29.54 in 10.0 mi West 10.4 mph - N/A   Mostly Cloudy
7:55 PM 28.4 °F 19.7 °F 14.0 °F 55% 29.54 in 10.0 mi West 9.2 mph - N/A   Scattered Clouds
8:15 PM 28.4 °F 20.4 °F 12.2 °F 51% 29.55 in 10.0 mi West 8.1 mph - N/A   Partly Cloudy
8:55 PM 26.6 °F 17.5 °F 14.0 °F 59% 29.55 in 10.0 mi West 9.2 mph - N/A   Mostly Cloudy
9:15 PM 26.6 °F 18.2 °F 14.0 °F 59% 29.55 in 10.0 mi West 8.1 mph - N/A   Scattered Clouds
9:35 PM 26.6 °F 16.2 °F 14.0 °F 59% 29.55 in 10.0 mi West 11.5 mph 16.1 mph N/A   Partly Cloudy
9:55 PM 26.6 °F 17.5 °F 14.0 °F 59% 29.55 in 10.0 mi West 9.2 mph 18.4 mph N/A   Mostly Cloudy
10:15 PM 26.6 °F 18.2 °F 14.0 °F 59% 29.55 in 10.0 mi West 8.1 mph 16.1 mph N/A   Scattered Clouds
10:35 PM 26.6 °F 17.5 °F 14.0 °F 59% 29.56 in 10.0 mi WSW 9.2 mph - N/A   Clear
10:55 PM 26.6 °F 18.2 °F 14.0 °F 59% 29.56 in 10.0 mi WSW 8.1 mph - N/A   Clear
11:15 PM 26.6 °F 18.2 °F 14.0 °F 59% 29.56 in 10.0 mi West 8.1 mph - N/A   Clear
11:35 PM 26.6 °F 18.2 °F 12.2 °F 55% 29.56 in 10.0 mi West 8.1 mph 18.4 mph N/A   Partly Cloudy
11:55 PM 26.6 °F 16.8 °F 12.2 °F 55% 29.56 in 10.0 mi West 10.4 mph - N/A   Mostly Cloudy